PWSweather.com
Personal Weather Stations
Station Observations
KCARIDGE3
Ridgecrest, CA 93555

Ridgecrest, CA 93555

Lat: 35.62083817, Lon: -117.6733017

Elevation: 2315

Station Type:

High Low Average
Temperature 106.5°F41.4°C 75.6°F24.2°C 90.0°F32.2°C
Dew Point 48.7°F9.3°C 0.7°F-17.4°C 37.7°F3.2°C
Winds 17.9 mph 28.8 kmh 0.9 mph 1.4 kmh 9.0 mph SSW14.5 kmh SSW
Wind Gusts 23.9 mph38.5 kmh -- 9.0 mph14.5 kmh
Humidity 37% 2% 20%
Pressure -338605.1 mb -338605.1 mb -
Precipitation 0.00 in0.0 mm - -
Hour Temp Dew Point Humidity Winds Wind Gusts Pressure Precip Precip Rate Daily Precip Total
12:02 AM 83.5°F28.6°C 46.0°F7.8°C 27% 8.9 mph S14.3 kmh S 8.1 mph13.0 kmh -338605.1 mb 0.00 in0.0 mm 0.00 in/hr0.0 mm/hr 0.00 in0.0 mm
12:07 AM 82.9°F28.3°C 46.4°F8.0°C 28% 8.1 mph SW13.0 kmh SW 11.0 mph17.7 kmh -338605.1 mb 0.00 in0.0 mm 0.00 in/hr0.0 mm/hr 0.00 in0.0 mm
12:12 AM 82.8°F28.2°C 46.4°F8.0°C 28% 6.9 mph SW11.1 kmh SW 8.1 mph13.0 kmh -338605.1 mb 0.00 in0.0 mm 0.00 in/hr0.0 mm/hr 0.00 in0.0 mm
12:17 AM 82.8°F28.2°C 46.4°F8.0°C 28% 8.1 mph SW13.0 kmh SW 10.1 mph16.3 kmh -338605.1 mb 0.00 in0.0 mm 0.00 in/hr0.0 mm/hr 0.00 in0.0 mm
12:22 AM 82.6°F28.1°C 46.2°F7.9°C 28% 8.1 mph SSW13.0 kmh SSW 10.1 mph16.3 kmh -338605.1 mb 0.00 in0.0 mm 0.00 in/hr0.0 mm/hr 0.00 in0.0 mm
12:27 AM 82.9°F28.3°C 46.4°F8.0°C 28% 8.9 mph S14.3 kmh S 8.1 mph13.0 kmh -338605.1 mb 0.00 in0.0 mm 0.00 in/hr0.0 mm/hr 0.00 in0.0 mm
12:32 AM 82.8°F28.2°C 46.4°F8.0°C 28% 8.1 mph SSW13.0 kmh SSW 8.9 mph14.3 kmh -338605.1 mb 0.00 in0.0 mm 0.00 in/hr0.0 mm/hr 0.00 in0.0 mm
12:37 AM 82.2°F27.9°C 45.9°F7.7°C 28% 8.1 mph S13.0 kmh S 8.1 mph13.0 kmh -338605.1 mb 0.00 in0.0 mm 0.00 in/hr0.0 mm/hr 0.00 in0.0 mm
12:42 AM 81.7°F27.6°C 46.4°F8.0°C 29% 8.1 mph S13.0 kmh S 6.9 mph11.1 kmh -338605.1 mb 0.00 in0.0 mm 0.00 in/hr0.0 mm/hr 0.00 in0.0 mm
12:47 AM 81.1°F27.3°C 45.9°F7.7°C 29% 8.1 mph SSW13.0 kmh SSW 8.9 mph14.3 kmh -338605.1 mb 0.00 in0.0 mm 0.00 in/hr0.0 mm/hr 0.00 in0.0 mm
12:52 AM 81.5°F27.5°C 46.2°F7.9°C 29% 6.9 mph SW11.1 kmh SW 6.0 mph9.7 kmh -338605.1 mb 0.00 in0.0 mm 0.00 in/hr0.0 mm/hr 0.00 in0.0 mm
12:57 AM 81.3°F27.4°C 46.0°F7.8°C 29% 6.9 mph SW11.1 kmh SW 8.9 mph14.3 kmh -338605.1 mb 0.00 in0.0 mm 0.00 in/hr0.0 mm/hr 0.00 in0.0 mm
01:02 AM 81.1°F27.3°C 46.8°F8.2°C 30% 8.1 mph SSW13.0 kmh SSW 8.9 mph14.3 kmh -338605.1 mb 0.00 in0.0 mm 0.00 in/hr0.0 mm/hr 0.00 in0.0 mm
01:07 AM 81.5°F27.5°C 47.1°F8.4°C 30% 8.9 mph S14.3 kmh S 8.1 mph13.0 kmh -338605.1 mb 0.00 in0.0 mm 0.00 in/hr0.0 mm/hr 0.00 in0.0 mm
01:12 AM 81.3°F27.4°C 46.9°F8.3°C 30% 8.9 mph S14.3 kmh S 6.0 mph9.7 kmh -338605.1 mb 0.00 in0.0 mm 0.00 in/hr0.0 mm/hr 0.00 in0.0 mm
01:17 AM 81.5°F27.5°C 46.2°F7.9°C 29% 8.9 mph SSW14.3 kmh SSW 6.9 mph11.1 kmh -338605.1 mb 0.00 in0.0 mm 0.00 in/hr0.0 mm/hr 0.00 in0.0 mm
01:22 AM 81.0°F27.2°C 46.6°F8.1°C 30% 8.9 mph SSW14.3 kmh SSW 12.1 mph19.5 kmh -338605.1 mb 0.00 in0.0 mm 0.00 in/hr0.0 mm/hr 0.00 in0.0 mm
01:27 AM 81.0°F27.2°C 46.6°F8.1°C 30% 8.9 mph S14.3 kmh S 8.9 mph14.3 kmh -338605.1 mb 0.00 in0.0 mm 0.00 in/hr0.0 mm/hr 0.00 in0.0 mm
01:32 AM 80.1°F26.7°C 47.5°F8.6°C 32% 10.1 mph S16.3 kmh S 14.1 mph22.7 kmh -338605.1 mb 0.00 in0.0 mm 0.00 in/hr0.0 mm/hr 0.00 in0.0 mm
01:37 AM 79.5°F26.4°C 47.8°F8.8°C 33% 10.1 mph S16.3 kmh S 8.1 mph13.0 kmh -338605.1 mb 0.00 in0.0 mm 0.00 in/hr0.0 mm/hr 0.00 in0.0 mm
01:42 AM 79.0°F26.1°C 47.5°F8.6°C 33% 8.1 mph S13.0 kmh S 6.9 mph11.1 kmh -338605.1 mb 0.00 in0.0 mm 0.00 in/hr0.0 mm/hr 0.00 in0.0 mm
01:47 AM 78.6°F25.9°C 47.1°F8.4°C 33% 8.1 mph SSW13.0 kmh SSW 6.9 mph11.1 kmh -338605.1 mb 0.00 in0.0 mm 0.00 in/hr0.0 mm/hr 0.00 in0.0 mm
01:52 AM 77.9°F25.5°C 48.0°F8.9°C 35% 6.0 mph SSW9.7 kmh SSW 4.9 mph7.9 kmh -338605.1 mb 0.00 in0.0 mm 0.00 in/hr0.0 mm/hr 0.00 in0.0 mm
01:57 AM 77.5°F25.3°C 47.7°F8.7°C 35% 4.9 mph SSW7.9 kmh SSW 6.9 mph11.1 kmh -338605.1 mb 0.00 in0.0 mm 0.00 in/hr0.0 mm/hr 0.00 in0.0 mm
02:02 AM 77.7°F25.4°C 47.1°F8.4°C 34% 4.9 mph SSW7.9 kmh SSW 6.9 mph11.1 kmh -338605.1 mb 0.00 in0.0 mm 0.00 in/hr0.0 mm/hr 0.00 in0.0 mm
02:07 AM 77.7°F25.4°C 47.1°F8.4°C 34% 6.0 mph SW9.7 kmh SW 6.9 mph11.1 kmh -338605.1 mb 0.00 in0.0 mm 0.00 in/hr0.0 mm/hr 0.00 in0.0 mm
02:12 AM 77.7°F25.4°C 47.1°F8.4°C 34% 6.0 mph SW9.7 kmh SW 8.1 mph13.0 kmh -338605.1 mb 0.00 in0.0 mm 0.00 in/hr0.0 mm/hr 0.00 in0.0 mm
02:17 AM 78.4°F25.8°C 47.7°F8.7°C 34% 6.9 mph SSW11.1 kmh SSW 4.9 mph7.9 kmh -338605.1 mb 0.00 in0.0 mm 0.00 in/hr0.0 mm/hr 0.00 in0.0 mm
02:22 AM 78.6°F25.9°C 47.1°F8.4°C 33% 6.9 mph SW11.1 kmh SW 4.9 mph7.9 kmh -338605.1 mb 0.00 in0.0 mm 0.00 in/hr0.0 mm/hr 0.00 in0.0 mm
02:27 AM 78.6°F25.9°C 47.8°F8.8°C 34% 6.0 mph SW9.7 kmh SW 8.9 mph14.3 kmh -338605.1 mb 0.00 in0.0 mm 0.00 in/hr0.0 mm/hr 0.00 in0.0 mm
02:32 AM 78.6°F25.9°C 47.8°F8.8°C 34% 6.0 mph SSW9.7 kmh SSW 6.0 mph9.7 kmh -338605.1 mb 0.00 in0.0 mm 0.00 in/hr0.0 mm/hr 0.00 in0.0 mm
02:37 AM 78.6°F25.9°C 47.1°F8.4°C 33% 6.0 mph SSW9.7 kmh SSW 2.9 mph4.7 kmh -338605.1 mb 0.00 in0.0 mm 0.00 in/hr0.0 mm/hr 0.00 in0.0 mm
02:42 AM 78.6°F25.9°C 47.1°F8.4°C 33% 6.9 mph S11.1 kmh S 6.9 mph11.1 kmh -338605.1 mb 0.00 in0.0 mm 0.00 in/hr0.0 mm/hr 0.00 in0.0 mm
02:47 AM 78.3°F25.7°C 46.8°F8.2°C 33% 6.9 mph SSW11.1 kmh SSW 6.0 mph9.7 kmh -338605.1 mb 0.00 in0.0 mm 0.00 in/hr0.0 mm/hr 0.00 in0.0 mm
02:52 AM 78.4°F25.8°C 47.7°F8.7°C 34% 6.0 mph SW9.7 kmh SW 6.0 mph9.7 kmh -338605.1 mb 0.00 in0.0 mm 0.00 in/hr0.0 mm/hr 0.00 in0.0 mm
02:57 AM 78.4°F25.8°C 47.7°F8.7°C 34% 6.0 mph SSW9.7 kmh SSW 6.0 mph9.7 kmh -338605.1 mb 0.00 in0.0 mm 0.00 in/hr0.0 mm/hr 0.00 in0.0 mm
03:02 AM 78.1°F25.6°C 47.5°F8.6°C 34% 6.0 mph SSW9.7 kmh SSW 6.9 mph11.1 kmh -338605.1 mb 0.00 in0.0 mm 0.00 in/hr0.0 mm/hr 0.00 in0.0 mm
03:07 AM 77.7°F25.4°C 47.1°F8.4°C 34% 6.9 mph SW11.1 kmh SW 6.0 mph9.7 kmh -338605.1 mb 0.00 in0.0 mm 0.00 in/hr0.0 mm/hr 0.00 in0.0 mm
03:12 AM 77.7°F25.4°C 47.1°F8.4°C 34% 6.0 mph SW9.7 kmh SW 8.1 mph13.0 kmh -338605.1 mb 0.00 in0.0 mm 0.00 in/hr0.0 mm/hr 0.00 in0.0 mm
03:17 AM 77.9°F25.5°C 47.3°F8.5°C 34% 6.9 mph SW11.1 kmh SW 4.9 mph7.9 kmh -338605.1 mb 0.00 in0.0 mm 0.00 in/hr0.0 mm/hr 0.00 in0.0 mm
03:22 AM 78.4°F25.8°C 46.9°F8.3°C 33% 6.0 mph SW9.7 kmh SW 4.9 mph7.9 kmh -338605.1 mb 0.00 in0.0 mm 0.00 in/hr0.0 mm/hr 0.00 in0.0 mm
03:27 AM 78.3°F25.7°C 46.8°F8.2°C 33% 4.0 mph SSW6.4 kmh SSW 2.0 mph3.2 kmh -338605.1 mb 0.00 in0.0 mm 0.00 in/hr0.0 mm/hr 0.00 in0.0 mm
03:32 AM 77.7°F25.4°C 46.4°F8.0°C 33% 2.0 mph SSW3.2 kmh SSW 4.0 mph6.4 kmh -338605.1 mb 0.00 in0.0 mm 0.00 in/hr0.0 mm/hr 0.00 in0.0 mm
03:37 AM 78.1°F25.6°C 46.6°F8.1°C 33% 2.0 mph SSW3.2 kmh SSW 4.0 mph6.4 kmh -338605.1 mb 0.00 in0.0 mm 0.00 in/hr0.0 mm/hr 0.00 in0.0 mm
03:42 AM 78.1°F25.6°C 46.6°F8.1°C 33% 4.0 mph SW6.4 kmh SW 2.9 mph4.7 kmh -338605.1 mb 0.00 in0.0 mm 0.00 in/hr0.0 mm/hr 0.00 in0.0 mm
03:47 AM 77.5°F25.3°C 46.2°F7.9°C 33% 4.0 mph WSW6.4 kmh WSW 6.0 mph9.7 kmh -338605.1 mb 0.00 in0.0 mm 0.00 in/hr0.0 mm/hr 0.00 in0.0 mm
03:52 AM 77.2°F25.1°C 46.6°F8.1°C 34% 4.9 mph SW7.9 kmh SW 6.9 mph11.1 kmh -338605.1 mb 0.00 in0.0 mm 0.00 in/hr0.0 mm/hr 0.00 in0.0 mm
03:57 AM 76.8°F24.9°C 47.1°F8.4°C 35% 6.0 mph SW9.7 kmh SW 6.0 mph9.7 kmh -338605.1 mb 0.00 in0.0 mm 0.00 in/hr0.0 mm/hr 0.00 in0.0 mm
04:02 AM 76.8°F24.9°C 47.1°F8.4°C 35% 4.9 mph SW7.9 kmh SW 4.0 mph6.4 kmh -338605.1 mb 0.00 in0.0 mm 0.00 in/hr0.0 mm/hr 0.00 in0.0 mm
04:07 AM 77.2°F25.1°C 47.5°F8.6°C 35% 4.0 mph SSW6.4 kmh SSW 2.9 mph4.7 kmh -338605.1 mb 0.00 in0.0 mm 0.00 in/hr0.0 mm/hr 0.00 in0.0 mm
04:12 AM 76.8°F24.9°C 47.1°F8.4°C 35% 4.0 mph SSW6.4 kmh SSW 2.0 mph3.2 kmh -338605.1 mb 0.00 in0.0 mm 0.00 in/hr0.0 mm/hr 0.00 in0.0 mm
04:17 AM 76.5°F24.7°C 46.8°F8.2°C 35% 2.9 mph SW4.7 kmh SW 4.0 mph6.4 kmh -338605.1 mb 0.00 in0.0 mm 0.00 in/hr0.0 mm/hr 0.00 in0.0 mm
04:22 AM 76.6°F24.8°C 47.7°F8.7°C 36% 4.0 mph SW6.4 kmh SW 11.0 mph17.7 kmh -338605.1 mb 0.00 in0.0 mm 0.00 in/hr0.0 mm/hr 0.00 in0.0 mm
04:27 AM 76.8°F24.9°C 47.8°F8.8°C 36% 6.9 mph S11.1 kmh S 11.0 mph17.7 kmh -338605.1 mb 0.00 in0.0 mm 0.00 in/hr0.0 mm/hr 0.00 in0.0 mm
04:32 AM 77.0°F25.0°C 48.0°F8.9°C 36% 8.9 mph SSW14.3 kmh SSW 8.1 mph13.0 kmh -338605.1 mb 0.00 in0.0 mm 0.00 in/hr0.0 mm/hr 0.00 in0.0 mm
04:37 AM 76.8°F24.9°C 47.1°F8.4°C 35% 8.1 mph SW13.0 kmh SW 8.1 mph13.0 kmh -338605.1 mb 0.00 in0.0 mm 0.00 in/hr0.0 mm/hr 0.00 in0.0 mm
04:42 AM 76.6°F24.8°C 47.7°F8.7°C 36% 6.9 mph SW11.1 kmh SW 6.9 mph11.1 kmh -338605.1 mb 0.00 in0.0 mm 0.00 in/hr0.0 mm/hr 0.00 in0.0 mm
04:47 AM 76.3°F24.6°C 48.0°F8.9°C 37% 6.9 mph SW11.1 kmh SW 8.9 mph14.3 kmh -338605.1 mb 0.00 in0.0 mm 0.00 in/hr0.0 mm/hr 0.00 in0.0 mm
04:52 AM 76.5°F24.7°C 48.2°F9.0°C 37% 6.9 mph SSW11.1 kmh SSW 6.0 mph9.7 kmh -338605.1 mb 0.00 in0.0 mm 0.00 in/hr0.0 mm/hr 0.00 in0.0 mm
04:57 AM 76.5°F24.7°C 48.2°F9.0°C 37% 6.9 mph SW11.1 kmh SW 6.9 mph11.1 kmh -338605.1 mb 0.00 in0.0 mm 0.00 in/hr0.0 mm/hr 0.00 in0.0 mm
05:02 AM 76.6°F24.8°C 47.7°F8.7°C 36% 8.9 mph SW14.3 kmh SW 12.1 mph19.5 kmh -338605.1 mb 0.00 in0.0 mm 0.00 in/hr0.0 mm/hr 0.00 in0.0 mm
05:07 AM 76.8°F24.9°C 47.8°F8.8°C 36% 8.9 mph SW14.3 kmh SW 11.0 mph17.7 kmh -338605.1 mb 0.00 in0.0 mm 0.00 in/hr0.0 mm/hr 0.00 in0.0 mm
05:12 AM 77.4°F25.2°C 48.4°F9.1°C 36% 8.1 mph S13.0 kmh S 4.9 mph7.9 kmh -338605.1 mb 0.00 in0.0 mm 0.00 in/hr0.0 mm/hr 0.00 in0.0 mm
05:17 AM 77.5°F25.3°C 47.7°F8.7°C 35% 8.1 mph SW13.0 kmh SW 10.1 mph16.3 kmh -338605.1 mb 0.00 in0.0 mm 0.00 in/hr0.0 mm/hr 0.00 in0.0 mm
05:22 AM 77.2°F25.1°C 47.5°F8.6°C 35% 6.0 mph SW9.7 kmh SW 2.0 mph3.2 kmh -338605.1 mb 0.00 in0.0 mm 0.00 in/hr0.0 mm/hr 0.00 in0.0 mm
05:27 AM 77.4°F25.2°C 48.4°F9.1°C 36% 4.9 mph WSW7.9 kmh WSW 2.0 mph3.2 kmh -338605.1 mb 0.00 in0.0 mm 0.00 in/hr0.0 mm/hr 0.00 in0.0 mm
05:32 AM 76.6°F24.8°C 46.9°F8.3°C 35% 2.9 mph WSW4.7 kmh WSW -- -338605.1 mb 0.00 in0.0 mm 0.00 in/hr0.0 mm/hr 0.00 in0.0 mm
05:37 AM 76.3°F24.6°C 47.3°F8.5°C 36% 2.0 mph WSW3.2 kmh WSW -- -338605.1 mb 0.00 in0.0 mm 0.00 in/hr0.0 mm/hr 0.00 in0.0 mm
05:42 AM 75.7°F24.3°C 46.9°F8.3°C 36% 2.0 mph WSW3.2 kmh WSW 0.9 mph1.4 kmh -338605.1 mb 0.00 in0.0 mm 0.00 in/hr0.0 mm/hr 0.00 in0.0 mm
05:47 AM 75.7°F24.3°C 46.9°F8.3°C 36% 0.9 mph WSW1.4 kmh WSW 0.9 mph1.4 kmh -338605.1 mb 0.00 in0.0 mm 0.00 in/hr0.0 mm/hr 0.00 in0.0 mm
05:52 AM 75.6°F24.2°C 46.8°F8.2°C 36% 0.9 mph WSW1.4 kmh WSW 2.0 mph3.2 kmh -338605.1 mb 0.00 in0.0 mm 0.00 in/hr0.0 mm/hr 0.00 in0.0 mm
05:57 AM 75.9°F24.4°C 47.1°F8.4°C 36% 0.9 mph WSW1.4 kmh WSW -- -338605.1 mb 0.00 in0.0 mm 0.00 in/hr0.0 mm/hr 0.00 in0.0 mm
06:02 AM 75.9°F24.4°C 46.2°F7.9°C 35% 0.9 mph WSW1.4 kmh WSW 2.0 mph3.2 kmh -338605.1 mb 0.00 in0.0 mm 0.00 in/hr0.0 mm/hr 0.00 in0.0 mm
06:07 AM 75.6°F24.2°C 47.5°F8.6°C 37% 2.0 mph WSW3.2 kmh WSW 2.9 mph4.7 kmh -338605.1 mb 0.00 in0.0 mm 0.00 in/hr0.0 mm/hr 0.00 in0.0 mm
06:12 AM 75.7°F24.3°C 46.9°F8.3°C 36% 2.0 mph WSW3.2 kmh WSW 0.9 mph1.4 kmh -338605.1 mb 0.00 in0.0 mm 0.00 in/hr0.0 mm/hr 0.00 in0.0 mm
06:17 AM 76.1°F24.5°C 46.4°F8.0°C 35% 2.9 mph WSW4.7 kmh WSW 0.9 mph1.4 kmh -338605.1 mb 0.00 in0.0 mm 0.00 in/hr0.0 mm/hr 0.00 in0.0 mm
06:22 AM 76.5°F24.7°C 46.8°F8.2°C 35% 2.9 mph SSW4.7 kmh SSW 4.9 mph7.9 kmh -338605.1 mb 0.00 in0.0 mm 0.00 in/hr0.0 mm/hr 0.00 in0.0 mm
06:27 AM 76.5°F24.7°C 46.8°F8.2°C 35% 2.9 mph SSW4.7 kmh SSW 6.0 mph9.7 kmh -338605.1 mb 0.00 in0.0 mm 0.00 in/hr0.0 mm/hr 0.00 in0.0 mm
06:32 AM 77.2°F25.1°C 46.6°F8.1°C 34% 4.0 mph S6.4 kmh S 6.0 mph9.7 kmh -338605.1 mb 0.00 in0.0 mm 0.00 in/hr0.0 mm/hr 0.00 in0.0 mm
06:37 AM 77.5°F25.3°C 46.9°F8.3°C 34% 2.9 mph SSE4.7 kmh SSE 2.0 mph3.2 kmh -338605.1 mb 0.00 in0.0 mm 0.00 in/hr0.0 mm/hr 0.00 in0.0 mm
06:42 AM 78.3°F25.7°C 47.7°F8.7°C 34% 2.0 mph SE3.2 kmh SE 0.9 mph1.4 kmh -338605.1 mb 0.00 in0.0 mm 0.00 in/hr0.0 mm/hr 0.00 in0.0 mm
06:47 AM 78.8°F26.0°C 47.3°F8.5°C 33% 2.0 mph S3.2 kmh S 2.0 mph3.2 kmh -338605.1 mb 0.00 in0.0 mm 0.00 in/hr0.0 mm/hr 0.00 in0.0 mm
06:52 AM 78.4°F25.8°C 46.9°F8.3°C 33% 2.0 mph S3.2 kmh S 0.9 mph1.4 kmh -338605.1 mb 0.00 in0.0 mm 0.00 in/hr0.0 mm/hr 0.00 in0.0 mm
06:57 AM 79.0°F26.1°C 47.5°F8.6°C 33% 2.0 mph S3.2 kmh S 4.9 mph7.9 kmh -338605.1 mb 0.00 in0.0 mm 0.00 in/hr0.0 mm/hr 0.00 in0.0 mm
07:02 AM 79.5°F26.4°C 46.2°F7.9°C 31% 2.9 mph SSE4.7 kmh SSE 4.9 mph7.9 kmh -338605.1 mb 0.00 in0.0 mm 0.00 in/hr0.0 mm/hr 0.00 in0.0 mm
07:07 AM 79.5°F26.4°C 46.2°F7.9°C 31% 4.0 mph SSW6.4 kmh SSW 6.0 mph9.7 kmh -338605.1 mb 0.00 in0.0 mm 0.00 in/hr0.0 mm/hr 0.00 in0.0 mm
07:12 AM 79.3°F26.3°C 46.0°F7.8°C 31% 6.0 mph S9.7 kmh S 4.0 mph6.4 kmh -338605.1 mb 0.00 in0.0 mm 0.00 in/hr0.0 mm/hr 0.00 in0.0 mm
07:17 AM 79.5°F26.4°C 46.2°F7.9°C 31% 6.9 mph SW11.1 kmh SW 10.1 mph16.3 kmh -338605.1 mb 0.00 in0.0 mm 0.00 in/hr0.0 mm/hr 0.00 in0.0 mm
07:22 AM 80.2°F26.8°C 46.0°F7.8°C 30% 6.9 mph SSW11.1 kmh SSW 8.1 mph13.0 kmh -338605.1 mb 0.00 in0.0 mm 0.00 in/hr0.0 mm/hr 0.00 in0.0 mm
07:27 AM 81.1°F27.3°C 45.9°F7.7°C 29% 8.1 mph WSW13.0 kmh WSW 8.9 mph14.3 kmh -338605.1 mb 0.00 in0.0 mm 0.00 in/hr0.0 mm/hr 0.00 in0.0 mm
07:32 AM 81.3°F27.4°C 46.0°F7.8°C 29% 6.9 mph W11.1 kmh W 8.1 mph13.0 kmh -338605.1 mb 0.00 in0.0 mm 0.00 in/hr0.0 mm/hr 0.00 in0.0 mm
07:37 AM 81.7°F27.6°C 46.4°F8.0°C 29% 6.0 mph WSW9.7 kmh WSW 2.0 mph3.2 kmh -338605.1 mb 0.00 in0.0 mm 0.00 in/hr0.0 mm/hr 0.00 in0.0 mm
07:42 AM 81.3°F27.4°C 46.0°F7.8°C 29% 4.0 mph SW6.4 kmh SW 2.9 mph4.7 kmh -338605.1 mb 0.00 in0.0 mm 0.00 in/hr0.0 mm/hr 0.00 in0.0 mm
07:47 AM 82.2°F27.9°C 45.9°F7.7°C 28% 4.0 mph SW6.4 kmh SW 6.9 mph11.1 kmh -338605.1 mb 0.00 in0.0 mm 0.00 in/hr0.0 mm/hr 0.00 in0.0 mm
07:52 AM 83.1°F28.4°C 46.6°F8.1°C 28% 4.0 mph SW6.4 kmh SW 4.9 mph7.9 kmh -338605.1 mb 0.00 in0.0 mm 0.00 in/hr0.0 mm/hr 0.00 in0.0 mm
07:57 AM 83.7°F28.7°C 46.2°F7.9°C 27% 4.9 mph SW7.9 kmh SW 4.0 mph6.4 kmh -338605.1 mb 0.00 in0.0 mm 0.00 in/hr0.0 mm/hr 0.00 in0.0 mm
08:02 AM 83.5°F28.6°C 46.9°F8.3°C 28% 6.0 mph SW9.7 kmh SW 13.0 mph20.9 kmh -338605.1 mb 0.00 in0.0 mm 0.00 in/hr0.0 mm/hr 0.00 in0.0 mm
08:07 AM 84.0°F28.9°C 46.4°F8.0°C 27% 6.0 mph SSW9.7 kmh SSW 6.9 mph11.1 kmh -338605.1 mb 0.00 in0.0 mm 0.00 in/hr0.0 mm/hr 0.00 in0.0 mm
08:12 AM 84.6°F29.2°C 45.9°F7.7°C 26% 6.9 mph SSW11.1 kmh SSW 6.9 mph11.1 kmh -338605.1 mb 0.00 in0.0 mm 0.00 in/hr0.0 mm/hr 0.00 in0.0 mm
08:17 AM 84.7°F29.3°C 46.0°F7.8°C 26% 6.0 mph S9.7 kmh S 2.0 mph3.2 kmh -338605.1 mb 0.00 in0.0 mm 0.00 in/hr0.0 mm/hr 0.00 in0.0 mm
08:22 AM 84.6°F29.2°C 45.9°F7.7°C 26% 6.9 mph SW11.1 kmh SW 6.0 mph9.7 kmh -338605.1 mb 0.00 in0.0 mm 0.00 in/hr0.0 mm/hr 0.00 in0.0 mm
08:27 AM 84.6°F29.2°C 45.9°F7.7°C 26% 8.1 mph SW13.0 kmh SW 6.0 mph9.7 kmh -338605.1 mb 0.00 in0.0 mm 0.00 in/hr0.0 mm/hr 0.00 in0.0 mm
08:32 AM 85.3°F29.6°C 45.5°F7.5°C 25% 8.1 mph SW13.0 kmh SW 10.1 mph16.3 kmh -338605.1 mb 0.00 in0.0 mm 0.00 in/hr0.0 mm/hr 0.00 in0.0 mm
08:37 AM 85.6°F29.8°C 45.9°F7.7°C 25% 6.9 mph SSW11.1 kmh SSW 11.0 mph17.7 kmh -338605.1 mb 0.00 in0.0 mm 0.00 in/hr0.0 mm/hr 0.00 in0.0 mm
08:42 AM 86.0°F30.0°C 45.0°F7.2°C 24% 8.1 mph S13.0 kmh S 11.0 mph17.7 kmh -338605.1 mb 0.00 in0.0 mm 0.00 in/hr0.0 mm/hr 0.00 in0.0 mm
08:47 AM 86.2°F30.1°C 45.1°F7.3°C 24% 8.1 mph SW13.0 kmh SW 10.1 mph16.3 kmh -338605.1 mb 0.00 in0.0 mm 0.00 in/hr0.0 mm/hr 0.00 in0.0 mm
08:52 AM 86.4°F30.2°C 46.4°F8.0°C 25% 8.1 mph WSW13.0 kmh WSW 8.9 mph14.3 kmh -338605.1 mb 0.00 in0.0 mm 0.00 in/hr0.0 mm/hr 0.00 in0.0 mm
08:57 AM 86.9°F30.5°C 45.7°F7.6°C 24% 8.9 mph SW14.3 kmh SW 8.1 mph13.0 kmh -338605.1 mb 0.00 in0.0 mm 0.00 in/hr0.0 mm/hr 0.00 in0.0 mm
09:02 AM 86.7°F30.4°C 44.4°F6.9°C 23% 8.9 mph SSW14.3 kmh SSW 8.1 mph13.0 kmh -338605.1 mb 0.00 in0.0 mm 0.00 in/hr0.0 mm/hr 0.00 in0.0 mm
09:07 AM 87.6°F30.9°C 45.3°F7.4°C 23% 8.9 mph SSW14.3 kmh SSW 6.9 mph11.1 kmh -338605.1 mb 0.00 in0.0 mm 0.00 in/hr0.0 mm/hr 0.00 in0.0 mm
09:12 AM 88.0°F31.1°C 45.5°F7.5°C 23% 8.9 mph S14.3 kmh S 6.0 mph9.7 kmh -338605.1 mb 0.00 in0.0 mm 0.00 in/hr0.0 mm/hr 0.00 in0.0 mm
09:17 AM 88.2°F31.2°C 45.7°F7.6°C 23% 8.1 mph SSW13.0 kmh SSW 15.0 mph24.1 kmh -338605.1 mb 0.00 in0.0 mm 0.00 in/hr0.0 mm/hr 0.00 in0.0 mm
09:22 AM 88.7°F31.5°C 45.0°F7.2°C 22% 8.1 mph S13.0 kmh S 8.1 mph13.0 kmh -338605.1 mb 0.00 in0.0 mm 0.00 in/hr0.0 mm/hr 0.00 in0.0 mm
09:27 AM 88.5°F31.4°C 44.8°F7.1°C 22% 8.9 mph S14.3 kmh S 15.0 mph24.1 kmh -338605.1 mb 0.00 in0.0 mm 0.00 in/hr0.0 mm/hr 0.00 in0.0 mm
09:32 AM 89.1°F31.7°C 44.1°F6.7°C 21% 8.9 mph S14.3 kmh S 8.1 mph13.0 kmh -338605.1 mb 0.00 in0.0 mm 0.00 in/hr0.0 mm/hr 0.00 in0.0 mm
09:37 AM 89.4°F31.9°C 44.4°F6.9°C 21% 8.9 mph SSW14.3 kmh SSW 8.9 mph14.3 kmh -338605.1 mb 0.00 in0.0 mm 0.00 in/hr0.0 mm/hr 0.00 in0.0 mm
09:42 AM 89.8°F32.1°C 44.6°F7.0°C 21% 8.1 mph S13.0 kmh S 8.9 mph14.3 kmh -338605.1 mb 0.00 in0.0 mm 0.00 in/hr0.0 mm/hr 0.00 in0.0 mm
09:47 AM 90.0°F32.2°C 44.8°F7.1°C 21% 6.9 mph SW11.1 kmh SW 4.9 mph7.9 kmh -338605.1 mb 0.00 in0.0 mm 0.00 in/hr0.0 mm/hr 0.00 in0.0 mm
09:52 AM 90.9°F32.7°C 45.5°F7.5°C 21% 6.0 mph S9.7 kmh S 6.9 mph11.1 kmh -338605.1 mb 0.00 in0.0 mm 0.00 in/hr0.0 mm/hr 0.00 in0.0 mm
09:57 AM 91.6°F33.1°C 44.8°F7.1°C 20% 6.0 mph S9.7 kmh S 10.1 mph16.3 kmh -338605.1 mb 0.00 in0.0 mm 0.00 in/hr0.0 mm/hr 0.00 in0.0 mm
10:02 AM 91.0°F32.8°C 43.0°F6.1°C 19% 6.9 mph SSW11.1 kmh SSW 6.9 mph11.1 kmh -338605.1 mb 0.00 in0.0 mm 0.00 in/hr0.0 mm/hr 0.00 in0.0 mm
10:07 AM 91.8°F33.2°C 43.7°F6.5°C 19% 6.9 mph S11.1 kmh S 8.1 mph13.0 kmh -338605.1 mb 0.00 in0.0 mm 0.00 in/hr0.0 mm/hr 0.00 in0.0 mm
10:12 AM 92.1°F33.4°C 43.9°F6.6°C 19% 8.1 mph SSW13.0 kmh SSW 6.9 mph11.1 kmh -338605.1 mb 0.00 in0.0 mm 0.00 in/hr0.0 mm/hr 0.00 in0.0 mm
10:17 AM 92.7°F33.7°C 43.0°F6.1°C 18% 8.1 mph S13.0 kmh S 4.9 mph7.9 kmh -338605.1 mb 0.00 in0.0 mm 0.00 in/hr0.0 mm/hr 0.00 in0.0 mm
10:22 AM 93.0°F33.9°C 43.3°F6.3°C 18% 6.9 mph SSW11.1 kmh SSW 2.9 mph4.7 kmh -338605.1 mb 0.00 in0.0 mm 0.00 in/hr0.0 mm/hr 0.00 in0.0 mm
10:27 AM 93.4°F34.1°C 42.1°F5.6°C 17% 6.9 mph SSW11.1 kmh SSW 6.9 mph11.1 kmh -338605.1 mb 0.00 in0.0 mm 0.00 in/hr0.0 mm/hr 0.00 in0.0 mm
10:32 AM 93.4°F34.1°C 42.1°F5.6°C 17% 6.9 mph S11.1 kmh S 6.9 mph11.1 kmh -338605.1 mb 0.00 in0.0 mm 0.00 in/hr0.0 mm/hr 0.00 in0.0 mm
10:37 AM 93.4°F34.1°C 42.1°F5.6°C 17% 6.0 mph SW9.7 kmh SW 4.0 mph6.4 kmh -338605.1 mb 0.00 in0.0 mm 0.00 in/hr0.0 mm/hr 0.00 in0.0 mm
10:42 AM 93.4°F34.1°C 42.1°F5.6°C 17% 4.9 mph WSW7.9 kmh WSW 2.0 mph3.2 kmh -338605.1 mb 0.00 in0.0 mm 0.00 in/hr0.0 mm/hr 0.00 in0.0 mm
10:47 AM 94.5°F34.7°C 41.4°F5.2°C 16% 4.9 mph SE7.9 kmh SE 4.9 mph7.9 kmh -338605.1 mb 0.00 in0.0 mm 0.00 in/hr0.0 mm/hr 0.00 in0.0 mm
10:52 AM 94.8°F34.9°C 39.9°F4.4°C 15% 4.9 mph SSE7.9 kmh SSE 6.0 mph9.7 kmh -338605.1 mb 0.00 in0.0 mm 0.00 in/hr0.0 mm/hr 0.00 in0.0 mm
10:57 AM 95.5°F35.3°C 40.5°F4.7°C 15% 4.9 mph S7.9 kmh S 4.0 mph6.4 kmh -338605.1 mb 0.00 in0.0 mm 0.00 in/hr0.0 mm/hr 0.00 in0.0 mm
11:02 AM 96.4°F35.8°C 39.6°F4.2°C 14% 6.0 mph SSW9.7 kmh SSW 4.0 mph6.4 kmh -338605.1 mb 0.00 in0.0 mm 0.00 in/hr0.0 mm/hr 0.00 in0.0 mm
11:07 AM 96.6°F35.9°C 37.8°F3.2°C 13% 8.1 mph SW13.0 kmh SW 8.9 mph14.3 kmh -338605.1 mb 0.00 in0.0 mm 0.00 in/hr0.0 mm/hr 0.00 in0.0 mm
11:12 AM 96.4°F35.8°C 37.6°F3.1°C 13% 8.1 mph SW13.0 kmh SW 6.9 mph11.1 kmh -338605.1 mb 0.00 in0.0 mm 0.00 in/hr0.0 mm/hr 0.00 in0.0 mm
11:17 AM 97.5°F36.4°C 38.5°F3.6°C 13% 4.9 mph SSW7.9 kmh SSW 6.9 mph11.1 kmh -338605.1 mb 0.00 in0.0 mm 0.00 in/hr0.0 mm/hr 0.00 in0.0 mm
11:22 AM 97.9°F36.6°C 36.7°F2.6°C 12% 6.9 mph SW11.1 kmh SW 15.0 mph24.1 kmh -338605.1 mb 0.00 in0.0 mm 0.00 in/hr0.0 mm/hr 0.00 in0.0 mm
11:27 AM 97.2°F36.2°C 36.1°F2.3°C 12% 8.1 mph SW13.0 kmh SW 6.0 mph9.7 kmh -338605.1 mb 0.00 in0.0 mm 0.00 in/hr0.0 mm/hr 0.00 in0.0 mm
11:32 AM 97.5°F36.4°C 36.3°F2.4°C 12% 8.9 mph SSE14.3 kmh SSE 11.0 mph17.7 kmh -338605.1 mb 0.00 in0.0 mm 0.00 in/hr0.0 mm/hr 0.00 in0.0 mm
11:37 AM 97.3°F36.3°C 34.0°F1.1°C 11% 10.1 mph S16.3 kmh S 4.0 mph6.4 kmh -338605.1 mb 0.00 in0.0 mm 0.00 in/hr0.0 mm/hr 0.00 in0.0 mm
11:42 AM 98.2°F36.8°C 34.7°F1.5°C 11% 10.1 mph SSW16.3 kmh SSW 4.9 mph7.9 kmh -338605.1 mb 0.00 in0.0 mm 0.00 in/hr0.0 mm/hr 0.00 in0.0 mm
11:47 AM 98.4°F36.9°C 34.9°F1.6°C 11% 8.9 mph S14.3 kmh S 11.0 mph17.7 kmh -338605.1 mb 0.00 in0.0 mm 0.00 in/hr0.0 mm/hr 0.00 in0.0 mm
11:52 AM 98.8°F37.1°C 35.2°F1.8°C 11% 8.9 mph SSW14.3 kmh SSW 6.9 mph11.1 kmh -338605.1 mb 0.00 in0.0 mm 0.00 in/hr0.0 mm/hr 0.00 in0.0 mm
11:57 AM 99.0°F37.2°C 35.2°F1.8°C 11% 8.9 mph WSW14.3 kmh WSW 6.0 mph9.7 kmh -338605.1 mb 0.00 in0.0 mm 0.00 in/hr0.0 mm/hr 0.00 in0.0 mm
12:02 PM 98.8°F37.1°C 35.2°F1.8°C 11% 10.1 mph SSW16.3 kmh SSW 4.9 mph7.9 kmh -338605.1 mb 0.00 in0.0 mm 0.00 in/hr0.0 mm/hr 0.00 in0.0 mm
12:07 PM 98.8°F37.1°C 35.2°F1.8°C 11% 11.0 mph SSW17.7 kmh SSW 6.0 mph9.7 kmh -338605.1 mb 0.00 in0.0 mm 0.00 in/hr0.0 mm/hr 0.00 in0.0 mm
12:12 PM 99.7°F37.6°C 33.4°F0.8°C 10% 10.1 mph S16.3 kmh S 8.9 mph14.3 kmh -338605.1 mb 0.00 in0.0 mm 0.00 in/hr0.0 mm/hr 0.00 in0.0 mm
12:17 PM 99.7°F37.6°C 35.8°F2.1°C 11% 10.1 mph SW16.3 kmh SW 8.1 mph13.0 kmh -338605.1 mb 0.00 in0.0 mm 0.00 in/hr0.0 mm/hr 0.00 in0.0 mm
12:22 PM 100.6°F38.1°C 36.5°F2.5°C 11% 8.1 mph SW13.0 kmh SW 13.0 mph20.9 kmh -338605.1 mb 0.00 in0.0 mm 0.00 in/hr0.0 mm/hr 0.00 in0.0 mm
12:27 PM 100.0°F37.8°C 33.8°F1.0°C 10% 8.1 mph SSE13.0 kmh SSE 14.1 mph22.7 kmh -338605.1 mb 0.00 in0.0 mm 0.00 in/hr0.0 mm/hr 0.00 in0.0 mm
12:32 PM 100.0°F37.8°C 33.8°F1.0°C 10% 8.9 mph SE14.3 kmh SE 11.0 mph17.7 kmh -338605.1 mb 0.00 in0.0 mm 0.00 in/hr0.0 mm/hr 0.00 in0.0 mm
12:37 PM 100.9°F38.3°C 31.8°F-0.1°C 9% 11.0 mph S17.7 kmh S 8.9 mph14.3 kmh -338605.1 mb 0.00 in0.0 mm 0.00 in/hr0.0 mm/hr 0.00 in0.0 mm
12:42 PM 100.9°F38.3°C 34.3°F1.3°C 10% 12.1 mph S19.5 kmh S 10.1 mph16.3 kmh -338605.1 mb 0.00 in0.0 mm 0.00 in/hr0.0 mm/hr 0.00 in0.0 mm
12:47 PM 101.3°F38.5°C 32.0°F0.0°C 9% 10.1 mph SW16.3 kmh SW 8.1 mph13.0 kmh -338605.1 mb 0.00 in0.0 mm 0.00 in/hr0.0 mm/hr 0.00 in0.0 mm
12:52 PM 101.5°F38.6°C 32.2°F0.1°C 9% 10.1 mph SSW16.3 kmh SSW 6.9 mph11.1 kmh -338605.1 mb 0.00 in0.0 mm 0.00 in/hr0.0 mm/hr 0.00 in0.0 mm
12:57 PM 101.5°F38.6°C 32.2°F0.1°C 9% 6.9 mph SSW11.1 kmh SSW 10.1 mph16.3 kmh -338605.1 mb 0.00 in0.0 mm 0.00 in/hr0.0 mm/hr 0.00 in0.0 mm
01:02 PM 102.2°F39.0°C 29.8°F-1.2°C 8% 6.9 mph S11.1 kmh S 8.1 mph13.0 kmh -338605.1 mb 0.00 in0.0 mm 0.00 in/hr0.0 mm/hr 0.00 in0.0 mm
01:07 PM 102.0°F38.9°C 29.7°F-1.3°C 8% 8.9 mph WSW14.3 kmh WSW 11.0 mph17.7 kmh -338605.1 mb 0.00 in0.0 mm 0.00 in/hr0.0 mm/hr 0.00 in0.0 mm
01:12 PM 102.2°F39.0°C 29.8°F-1.2°C 8% 8.1 mph SW13.0 kmh SW 8.1 mph13.0 kmh -338605.1 mb 0.00 in0.0 mm 0.00 in/hr0.0 mm/hr 0.00 in0.0 mm
01:17 PM 103.1°F39.5°C 27.1°F-2.7°C 7% 8.1 mph SW13.0 kmh SW 4.9 mph7.9 kmh -338605.1 mb 0.00 in0.0 mm 0.00 in/hr0.0 mm/hr 0.00 in0.0 mm
01:22 PM 103.1°F39.5°C 27.1°F-2.7°C 7% 8.1 mph WSW13.0 kmh WSW 12.1 mph19.5 kmh -338605.1 mb 0.00 in0.0 mm 0.00 in/hr0.0 mm/hr 0.00 in0.0 mm
01:27 PM 102.7°F39.3°C 27.0°F-2.8°C 7% 10.1 mph SW16.3 kmh SW 13.0 mph20.9 kmh -338605.1 mb 0.00 in0.0 mm 0.00 in/hr0.0 mm/hr 0.00 in0.0 mm
01:32 PM 103.1°F39.5°C 27.1°F-2.7°C 7% 11.0 mph SW17.7 kmh SW 11.0 mph17.7 kmh -338605.1 mb 0.00 in0.0 mm 0.00 in/hr0.0 mm/hr 0.00 in0.0 mm
01:37 PM 103.6°F39.8°C 23.9°F-4.5°C 6% 10.1 mph SW16.3 kmh SW 6.0 mph9.7 kmh -338605.1 mb 0.00 in0.0 mm 0.00 in/hr0.0 mm/hr 0.00 in0.0 mm
01:42 PM 103.8°F39.9°C 24.1°F-4.4°C 6% 8.9 mph SW14.3 kmh SW 4.9 mph7.9 kmh -338605.1 mb 0.00 in0.0 mm 0.00 in/hr0.0 mm/hr 0.00 in0.0 mm
01:47 PM 103.8°F39.9°C 24.1°F-4.4°C 6% 8.9 mph SW14.3 kmh SW 6.9 mph11.1 kmh -338605.1 mb 0.00 in0.0 mm 0.00 in/hr0.0 mm/hr 0.00 in0.0 mm
01:52 PM 104.2°F40.1°C 19.9°F-6.7°C 5% 11.0 mph SSW17.7 kmh SSW 8.1 mph13.0 kmh -338605.1 mb 0.00 in0.0 mm 0.00 in/hr0.0 mm/hr 0.00 in0.0 mm
01:57 PM 104.2°F40.1°C 14.7°F-9.6°C 4% 11.0 mph SSW17.7 kmh SSW 12.1 mph19.5 kmh -338605.1 mb 0.00 in0.0 mm 0.00 in/hr0.0 mm/hr 0.00 in0.0 mm
02:02 PM 104.5°F40.3°C 15.1°F-9.4°C 4% 10.1 mph WSW16.3 kmh WSW 8.9 mph14.3 kmh -338605.1 mb 0.00 in0.0 mm 0.00 in/hr0.0 mm/hr 0.00 in0.0 mm
02:07 PM 104.5°F40.3°C 15.1°F-9.4°C 4% 11.0 mph SW17.7 kmh SW 6.9 mph11.1 kmh -338605.1 mb 0.00 in0.0 mm 0.00 in/hr0.0 mm/hr 0.00 in0.0 mm
02:12 PM 104.5°F40.3°C 24.4°F-4.2°C 6% 10.1 mph SW16.3 kmh SW 6.9 mph11.1 kmh -338605.1 mb 0.00 in0.0 mm 0.00 in/hr0.0 mm/hr 0.00 in0.0 mm
02:17 PM 104.7°F40.4°C 20.3°F-6.5°C 5% 8.1 mph SW13.0 kmh SW 12.1 mph19.5 kmh -338605.1 mb 0.00 in0.0 mm 0.00 in/hr0.0 mm/hr 0.00 in0.0 mm
02:22 PM 105.1°F40.6°C 20.5°F-6.4°C 5% 8.9 mph S14.3 kmh S 17.9 mph28.8 kmh -338605.1 mb 0.00 in0.0 mm 0.00 in/hr0.0 mm/hr 0.00 in0.0 mm
02:27 PM 105.3°F40.7°C 25.0°F-3.9°C 6% 10.1 mph S16.3 kmh S 6.9 mph11.1 kmh -338605.1 mb 0.00 in0.0 mm 0.00 in/hr0.0 mm/hr 0.00 in0.0 mm
02:32 PM 105.3°F40.7°C 20.7°F-6.3°C 5% 8.1 mph SSW13.0 kmh SSW 15.0 mph24.1 kmh -338605.1 mb 0.00 in0.0 mm 0.00 in/hr0.0 mm/hr 0.00 in0.0 mm
02:37 PM 105.1°F40.6°C 15.4°F-9.2°C 4% 6.9 mph S11.1 kmh S 6.9 mph11.1 kmh -338605.1 mb 0.00 in0.0 mm 0.00 in/hr0.0 mm/hr 0.00 in0.0 mm
02:42 PM 105.4°F40.8°C 15.6°F-9.1°C 4% 10.1 mph WSW16.3 kmh WSW 11.0 mph17.7 kmh -338605.1 mb 0.00 in0.0 mm 0.00 in/hr0.0 mm/hr 0.00 in0.0 mm
02:47 PM 105.4°F40.8°C 15.6°F-9.1°C 4% 11.0 mph SE17.7 kmh SE 6.0 mph9.7 kmh -338605.1 mb 0.00 in0.0 mm 0.00 in/hr0.0 mm/hr 0.00 in0.0 mm
02:52 PM 105.6°F40.9°C 15.8°F-9.0°C 4% 11.0 mph S17.7 kmh S 15.0 mph24.1 kmh -338605.1 mb 0.00 in0.0 mm 0.00 in/hr0.0 mm/hr 0.00 in0.0 mm
02:57 PM 106.2°F41.2°C 16.2°F-8.8°C 4% 11.0 mph SSW17.7 kmh SSW 8.9 mph14.3 kmh -338605.1 mb 0.00 in0.0 mm 0.00 in/hr0.0 mm/hr 0.00 in0.0 mm
03:02 PM 106.0°F41.1°C 9.5°F-12.5°C 3% 13.0 mph SSW20.9 kmh SSW 13.0 mph20.9 kmh -338605.1 mb 0.00 in0.0 mm 0.00 in/hr0.0 mm/hr 0.00 in0.0 mm
03:07 PM 106.0°F41.1°C 0.7°F-17.4°C 2% 13.0 mph SW20.9 kmh SW 12.1 mph19.5 kmh -338605.1 mb 0.00 in0.0 mm 0.00 in/hr0.0 mm/hr 0.00 in0.0 mm
03:12 PM 106.0°F41.1°C 9.5°F-12.5°C 3% 13.0 mph SSW20.9 kmh SSW 16.1 mph25.9 kmh -338605.1 mb 0.00 in0.0 mm 0.00 in/hr0.0 mm/hr 0.00 in0.0 mm
03:17 PM 105.8°F41.0°C 9.3°F-12.6°C 3% 14.1 mph SSW22.7 kmh SSW 13.0 mph20.9 kmh -338605.1 mb 0.00 in0.0 mm 0.00 in/hr0.0 mm/hr 0.00 in0.0 mm
03:22 PM 105.4°F40.8°C 15.6°F-9.1°C 4% 14.1 mph SW22.7 kmh SW 6.9 mph11.1 kmh -338605.1 mb 0.00 in0.0 mm 0.00 in/hr0.0 mm/hr 0.00 in0.0 mm
03:27 PM 106.0°F41.1°C 9.5°F-12.5°C 3% 13.0 mph S20.9 kmh S 10.1 mph16.3 kmh -338605.1 mb 0.00 in0.0 mm 0.00 in/hr0.0 mm/hr 0.00 in0.0 mm
03:32 PM 106.3°F41.3°C 9.7°F-12.4°C 3% 15.0 mph SSW24.1 kmh SSW 17.0 mph27.4 kmh -338605.1 mb 0.00 in0.0 mm 0.00 in/hr0.0 mm/hr 0.00 in0.0 mm
03:37 PM 106.3°F41.3°C 9.7°F-12.4°C 3% 15.0 mph SSW24.1 kmh SSW 14.1 mph22.7 kmh -338605.1 mb 0.00 in0.0 mm 0.00 in/hr0.0 mm/hr 0.00 in0.0 mm
03:42 PM 106.5°F41.4°C 1.0°F-17.2°C 2% 14.1 mph SW22.7 kmh SW 10.1 mph16.3 kmh -338605.1 mb 0.00 in0.0 mm 0.00 in/hr0.0 mm/hr 0.00 in0.0 mm
03:47 PM 106.3°F41.3°C 0.9°F-17.3°C 2% 15.0 mph S24.1 kmh S 11.0 mph17.7 kmh -338605.1 mb 0.00 in0.0 mm 0.00 in/hr0.0 mm/hr 0.00 in0.0 mm
03:52 PM 106.0°F41.1°C 9.5°F-12.5°C 3% 16.1 mph S25.9 kmh S 19.0 mph30.6 kmh -338605.1 mb 0.00 in0.0 mm 0.00 in/hr0.0 mm/hr 0.00 in0.0 mm
03:57 PM 106.0°F41.1°C 9.5°F-12.5°C 3% 17.0 mph SSE27.4 kmh SSE 16.1 mph25.9 kmh -338605.1 mb 0.00 in0.0 mm 0.00 in/hr0.0 mm/hr 0.00 in0.0 mm
04:02 PM 106.3°F41.3°C 9.7°F-12.4°C 3% 15.0 mph SSE24.1 kmh SSE 15.0 mph24.1 kmh -338605.1 mb 0.00 in0.0 mm 0.00 in/hr0.0 mm/hr 0.00 in0.0 mm
04:07 PM 106.3°F41.3°C 16.2°F-8.8°C 4% 14.1 mph SSW22.7 kmh SSW 11.0 mph17.7 kmh -338605.1 mb 0.00 in0.0 mm 0.00 in/hr0.0 mm/hr 0.00 in0.0 mm
04:12 PM 106.0°F41.1°C 16.0°F-8.9°C 4% 16.1 mph SW25.9 kmh SW 16.1 mph25.9 kmh -338605.1 mb 0.00 in0.0 mm 0.00 in/hr0.0 mm/hr 0.00 in0.0 mm
04:17 PM 106.0°F41.1°C 16.0°F-8.9°C 4% 17.0 mph S27.4 kmh S 14.1 mph22.7 kmh -338605.1 mb 0.00 in0.0 mm 0.00 in/hr0.0 mm/hr 0.00 in0.0 mm
04:22 PM 105.8°F41.0°C 15.8°F-9.0°C 4% 15.0 mph SW24.1 kmh SW 14.1 mph22.7 kmh -338605.1 mb 0.00 in0.0 mm 0.00 in/hr0.0 mm/hr 0.00 in0.0 mm
04:27 PM 106.0°F41.1°C 16.0°F-8.9°C 4% 15.0 mph SW24.1 kmh SW 15.0 mph24.1 kmh -338605.1 mb 0.00 in0.0 mm 0.00 in/hr0.0 mm/hr 0.00 in0.0 mm
04:32 PM 105.8°F41.0°C 9.3°F-12.6°C 3% 17.0 mph SSW27.4 kmh SSW 21.0 mph33.8 kmh -338605.1 mb 0.00 in0.0 mm 0.00 in/hr0.0 mm/hr 0.00 in0.0 mm
04:37 PM 105.3°F40.7°C 15.4°F-9.2°C 4% 17.9 mph SSW28.8 kmh SSW 23.0 mph37.0 kmh -338605.1 mb 0.00 in0.0 mm 0.00 in/hr0.0 mm/hr 0.00 in0.0 mm
04:42 PM 105.1°F40.6°C 15.4°F-9.2°C 4% 17.9 mph S28.8 kmh S 19.0 mph30.6 kmh -338605.1 mb 0.00 in0.0 mm 0.00 in/hr0.0 mm/hr 0.00 in0.0 mm
04:47 PM 105.3°F40.7°C 15.4°F-9.2°C 4% 17.0 mph SW27.4 kmh SW 23.9 mph38.5 kmh -338605.1 mb 0.00 in0.0 mm 0.00 in/hr0.0 mm/hr 0.00 in0.0 mm
04:52 PM 105.3°F40.7°C 15.4°F-9.2°C 4% 16.1 mph SSW25.9 kmh SSW 17.0 mph27.4 kmh -338605.1 mb 0.00 in0.0 mm 0.00 in/hr0.0 mm/hr 0.00 in0.0 mm
04:57 PM 105.3°F40.7°C 15.4°F-9.2°C 4% 16.1 mph SSW25.9 kmh SSW 17.9 mph28.8 kmh -338605.1 mb 0.00 in0.0 mm 0.00 in/hr0.0 mm/hr 0.00 in0.0 mm
05:02 PM 104.7°F40.4°C 15.1°F-9.4°C 4% 17.0 mph S27.4 kmh S 17.0 mph27.4 kmh -338605.1 mb 0.00 in0.0 mm 0.00 in/hr0.0 mm/hr 0.00 in0.0 mm
05:07 PM 104.5°F40.3°C 15.1°F-9.4°C 4% 17.0 mph SSW27.4 kmh SSW 19.9 mph32.0 kmh -338605.1 mb 0.00 in0.0 mm 0.00 in/hr0.0 mm/hr 0.00 in0.0 mm
05:12 PM 104.5°F40.3°C 15.1°F-9.4°C 4% 16.1 mph S25.9 kmh S 14.1 mph22.7 kmh -338605.1 mb 0.00 in0.0 mm 0.00 in/hr0.0 mm/hr 0.00 in0.0 mm
05:17 PM 104.0°F40.0°C 19.8°F-6.8°C 5% 16.1 mph SSW25.9 kmh SSW 23.9 mph38.5 kmh -338605.1 mb 0.00 in0.0 mm 0.00 in/hr0.0 mm/hr 0.00 in0.0 mm
05:22 PM 104.0°F40.0°C 27.9°F-2.3°C 7% 16.1 mph SSW25.9 kmh SSW 21.9 mph35.2 kmh -338605.1 mb 0.00 in0.0 mm 0.00 in/hr0.0 mm/hr 0.00 in0.0 mm
05:27 PM 103.6°F39.8°C 19.6°F-6.9°C 5% 16.1 mph SW25.9 kmh SW 16.1 mph25.9 kmh -338605.1 mb 0.00 in0.0 mm 0.00 in/hr0.0 mm/hr 0.00 in0.0 mm
05:32 PM 104.2°F40.1°C 24.3°F-4.3°C 6% 15.0 mph SW24.1 kmh SW 17.0 mph27.4 kmh -338605.1 mb 0.00 in0.0 mm 0.00 in/hr0.0 mm/hr 0.00 in0.0 mm
05:37 PM 103.6°F39.8°C 27.5°F-2.5°C 7% 13.0 mph S20.9 kmh S 17.9 mph28.8 kmh -338605.1 mb 0.00 in0.0 mm 0.00 in/hr0.0 mm/hr 0.00 in0.0 mm
05:42 PM 103.5°F39.7°C 27.5°F-2.5°C 7% 15.0 mph SW24.1 kmh SW 23.9 mph38.5 kmh -338605.1 mb 0.00 in0.0 mm 0.00 in/hr0.0 mm/hr 0.00 in0.0 mm
05:47 PM 102.7°F39.3°C 27.0°F-2.8°C 7% 16.1 mph SSW25.9 kmh SSW 4.9 mph7.9 kmh -338605.1 mb 0.00 in0.0 mm 0.00 in/hr0.0 mm/hr 0.00 in0.0 mm
05:52 PM 102.7°F39.3°C 27.0°F-2.8°C 7% 16.1 mph SSW25.9 kmh SSW 11.0 mph17.7 kmh -338605.1 mb 0.00 in0.0 mm 0.00 in/hr0.0 mm/hr 0.00 in0.0 mm
05:57 PM 102.6°F39.2°C 26.8°F-2.9°C 7% 16.1 mph S25.9 kmh S 11.0 mph17.7 kmh -338605.1 mb 0.00 in0.0 mm 0.00 in/hr0.0 mm/hr 0.00 in0.0 mm
06:02 PM 102.6°F39.2°C 26.8°F-2.9°C 7% 14.1 mph SW22.7 kmh SW 12.1 mph19.5 kmh -338605.1 mb 0.00 in0.0 mm 0.00 in/hr0.0 mm/hr 0.00 in0.0 mm
06:07 PM 102.4°F39.1°C 29.8°F-1.2°C 8% 12.1 mph SW19.5 kmh SW 8.1 mph13.0 kmh -338605.1 mb 0.00 in0.0 mm 0.00 in/hr0.0 mm/hr 0.00 in0.0 mm
06:12 PM 102.6°F39.2°C 26.8°F-2.9°C 7% 12.1 mph SW19.5 kmh SW 17.0 mph27.4 kmh -338605.1 mb 0.00 in0.0 mm 0.00 in/hr0.0 mm/hr 0.00 in0.0 mm
06:17 PM 102.4°F39.1°C 26.6°F-3.0°C 7% 12.1 mph WSW19.5 kmh WSW 11.0 mph17.7 kmh -338605.1 mb 0.00 in0.0 mm 0.00 in/hr0.0 mm/hr 0.00 in0.0 mm
06:22 PM 101.8°F38.8°C 29.5°F-1.4°C 8% 11.0 mph SW17.7 kmh SW 12.1 mph19.5 kmh -338605.1 mb 0.00 in0.0 mm 0.00 in/hr0.0 mm/hr 0.00 in0.0 mm
06:27 PM 101.7°F38.7°C 32.4°F0.2°C 9% 11.0 mph SSW17.7 kmh SSW 16.1 mph25.9 kmh -338605.1 mb 0.00 in0.0 mm 0.00 in/hr0.0 mm/hr 0.00 in0.0 mm
06:32 PM 101.5°F38.6°C 26.1°F-3.3°C 7% 14.1 mph S22.7 kmh S 21.9 mph35.2 kmh -338605.1 mb 0.00 in0.0 mm 0.00 in/hr0.0 mm/hr 0.00 in0.0 mm
06:37 PM 100.9°F38.3°C 28.9°F-1.7°C 8% 14.1 mph S22.7 kmh S 15.0 mph24.1 kmh -338605.1 mb 0.00 in0.0 mm 0.00 in/hr0.0 mm/hr 0.00 in0.0 mm
06:42 PM 101.1°F38.4°C 25.7°F-3.5°C 7% 12.1 mph SSW19.5 kmh SSW 6.0 mph9.7 kmh -338605.1 mb 0.00 in0.0 mm 0.00 in/hr0.0 mm/hr 0.00 in0.0 mm
06:47 PM 100.8°F38.2°C 28.8°F-1.8°C 8% 10.1 mph SSW16.3 kmh SSW 8.1 mph13.0 kmh -338605.1 mb 0.00 in0.0 mm 0.00 in/hr0.0 mm/hr 0.00 in0.0 mm
06:52 PM 100.2°F37.9°C 17.2°F-8.2°C 5% 10.1 mph SW16.3 kmh SW 12.1 mph19.5 kmh -338605.1 mb 0.00 in0.0 mm 0.00 in/hr0.0 mm/hr 0.00 in0.0 mm
06:57 PM 100.0°F37.8°C 17.1°F-8.3°C 5% 12.1 mph SSW19.5 kmh SSW 8.9 mph14.3 kmh -338605.1 mb 0.00 in0.0 mm 0.00 in/hr0.0 mm/hr 0.00 in0.0 mm
07:02 PM 99.7°F37.6°C 21.0°F-6.1°C 6% 14.1 mph SSW22.7 kmh SSW 21.9 mph35.2 kmh -338605.1 mb 0.00 in0.0 mm 0.00 in/hr0.0 mm/hr 0.00 in0.0 mm
07:07 PM 99.3°F37.4°C 24.4°F-4.2°C 7% 15.0 mph SW24.1 kmh SW 17.0 mph27.4 kmh -338605.1 mb 0.00 in0.0 mm 0.00 in/hr0.0 mm/hr 0.00 in0.0 mm
07:12 PM 99.0°F37.2°C 24.3°F-4.3°C 7% 14.1 mph SW22.7 kmh SW 13.0 mph20.9 kmh -338605.1 mb 0.00 in0.0 mm 0.00 in/hr0.0 mm/hr 0.00 in0.0 mm
07:17 PM 98.4°F36.9°C 23.7°F-4.6°C 7% 12.1 mph S19.5 kmh S 11.0 mph17.7 kmh -338605.1 mb 0.00 in0.0 mm 0.00 in/hr0.0 mm/hr 0.00 in0.0 mm
07:22 PM 98.1°F36.7°C 29.7°F-1.3°C 9% 13.0 mph S20.9 kmh S 6.9 mph11.1 kmh -338605.1 mb 0.00 in0.0 mm 0.00 in/hr0.0 mm/hr 0.00 in0.0 mm
07:27 PM 97.7°F36.5°C 29.3°F-1.5°C 9% 14.1 mph SSW22.7 kmh SSW 10.1 mph16.3 kmh -338605.1 mb 0.00 in0.0 mm 0.00 in/hr0.0 mm/hr 0.00 in0.0 mm
07:32 PM 97.3°F36.3°C 31.6°F-0.2°C 10% 12.1 mph S19.5 kmh S 13.0 mph20.9 kmh -338605.1 mb 0.00 in0.0 mm 0.00 in/hr0.0 mm/hr 0.00 in0.0 mm
07:37 PM 96.6°F35.9°C 33.4°F0.8°C 11% 10.1 mph S16.3 kmh S 8.9 mph14.3 kmh -338605.1 mb 0.00 in0.0 mm 0.00 in/hr0.0 mm/hr 0.00 in0.0 mm
07:42 PM 96.3°F35.7°C 35.4°F1.9°C 12% 10.1 mph SSW16.3 kmh SSW 8.9 mph14.3 kmh -338605.1 mb 0.00 in0.0 mm 0.00 in/hr0.0 mm/hr 0.00 in0.0 mm
07:47 PM 95.5°F35.3°C 34.9°F1.6°C 12% 8.9 mph S14.3 kmh S 6.9 mph11.1 kmh -338605.1 mb 0.00 in0.0 mm 0.00 in/hr0.0 mm/hr 0.00 in0.0 mm
07:52 PM 95.2°F35.1°C 38.5°F3.6°C 14% 8.1 mph SW13.0 kmh SW 6.0 mph9.7 kmh -338605.1 mb 0.00 in0.0 mm 0.00 in/hr0.0 mm/hr 0.00 in0.0 mm
07:57 PM 94.5°F34.7°C 37.9°F3.3°C 14% 8.1 mph SW13.0 kmh SW 8.1 mph13.0 kmh -338605.1 mb 0.00 in0.0 mm 0.00 in/hr0.0 mm/hr 0.00 in0.0 mm
08:02 PM 93.9°F34.4°C 37.6°F3.1°C 14% 6.0 mph S9.7 kmh S 6.0 mph9.7 kmh -338605.1 mb 0.00 in0.0 mm 0.00 in/hr0.0 mm/hr 0.00 in0.0 mm
08:07 PM 93.7°F34.3°C 35.4°F1.9°C 13% 6.9 mph SW11.1 kmh SW 6.9 mph11.1 kmh -338605.1 mb 0.00 in0.0 mm 0.00 in/hr0.0 mm/hr 0.00 in0.0 mm
08:12 PM 93.6°F34.2°C 37.2°F2.9°C 14% 8.9 mph SSW14.3 kmh SSW 12.1 mph19.5 kmh -338605.1 mb 0.00 in0.0 mm 0.00 in/hr0.0 mm/hr 0.00 in0.0 mm
08:17 PM 92.8°F33.8°C 36.7°F2.6°C 14% 8.9 mph SSW14.3 kmh SSW 8.1 mph13.0 kmh -338605.1 mb 0.00 in0.0 mm 0.00 in/hr0.0 mm/hr 0.00 in0.0 mm
08:22 PM 92.5°F33.6°C 39.7°F4.3°C 16% 10.1 mph SW16.3 kmh SW 6.0 mph9.7 kmh -338605.1 mb 0.00 in0.0 mm 0.00 in/hr0.0 mm/hr 0.00 in0.0 mm
08:27 PM 91.8°F33.2°C 40.8°F4.9°C 17% 8.9 mph SSW14.3 kmh SSW 11.0 mph17.7 kmh -338605.1 mb 0.00 in0.0 mm 0.00 in/hr0.0 mm/hr 0.00 in0.0 mm
08:32 PM 91.0°F32.8°C 44.4°F6.9°C 20% 8.1 mph SW13.0 kmh SW 13.0 mph20.9 kmh -338605.1 mb 0.00 in0.0 mm 0.00 in/hr0.0 mm/hr 0.00 in0.0 mm
08:37 PM 90.3°F32.4°C 45.1°F7.3°C 21% 8.9 mph SSW14.3 kmh SSW 8.1 mph13.0 kmh -338605.1 mb 0.00 in0.0 mm 0.00 in/hr0.0 mm/hr 0.00 in0.0 mm
08:42 PM 90.0°F32.2°C 46.0°F7.8°C 22% 8.9 mph S14.3 kmh S 12.1 mph19.5 kmh -338605.1 mb 0.00 in0.0 mm 0.00 in/hr0.0 mm/hr 0.00 in0.0 mm
08:47 PM 89.1°F31.7°C 46.4°F8.0°C 23% 10.1 mph S16.3 kmh S 17.9 mph28.8 kmh -338605.1 mb 0.00 in0.0 mm 0.00 in/hr0.0 mm/hr 0.00 in0.0 mm
08:52 PM 89.2°F31.8°C 47.7°F8.7°C 24% 11.0 mph S17.7 kmh S 6.9 mph11.1 kmh -338605.1 mb 0.00 in0.0 mm 0.00 in/hr0.0 mm/hr 0.00 in0.0 mm
08:57 PM 88.9°F31.6°C 46.2°F7.9°C 23% 11.0 mph SW17.7 kmh SW 10.1 mph16.3 kmh -338605.1 mb 0.00 in0.0 mm 0.00 in/hr0.0 mm/hr 0.00 in0.0 mm
09:02 PM 88.3°F31.3°C 46.9°F8.3°C 24% 10.1 mph SW16.3 kmh SW 6.0 mph9.7 kmh -338605.1 mb 0.00 in0.0 mm 0.00 in/hr0.0 mm/hr 0.00 in0.0 mm
09:07 PM 88.0°F31.1°C 47.8°F8.8°C 25% 10.1 mph SSW16.3 kmh SSW 13.0 mph20.9 kmh -338605.1 mb 0.00 in0.0 mm 0.00 in/hr0.0 mm/hr 0.00 in0.0 mm
09:12 PM 87.3°F30.7°C 47.1°F8.4°C 25% 11.0 mph SW17.7 kmh SW 13.0 mph20.9 kmh -338605.1 mb 0.00 in0.0 mm 0.00 in/hr0.0 mm/hr 0.00 in0.0 mm
09:17 PM 86.7°F30.4°C 48.7°F9.3°C 27% 12.1 mph SW19.5 kmh SW 4.9 mph7.9 kmh -338605.1 mb 0.00 in0.0 mm 0.00 in/hr0.0 mm/hr 0.00 in0.0 mm
09:22 PM 86.5°F30.3°C 47.7°F8.7°C 26% 11.0 mph SSW17.7 kmh SSW 6.9 mph11.1 kmh -338605.1 mb 0.00 in0.0 mm 0.00 in/hr0.0 mm/hr 0.00 in0.0 mm
09:27 PM 86.4°F30.2°C 47.5°F8.6°C 26% 11.0 mph SSW17.7 kmh SSW 6.9 mph11.1 kmh -338605.1 mb 0.00 in0.0 mm 0.00 in/hr0.0 mm/hr 0.00 in0.0 mm
09:32 PM 86.2°F30.1°C 47.3°F8.5°C 26% 11.0 mph SW17.7 kmh SW 12.1 mph19.5 kmh -338605.1 mb 0.00 in0.0 mm 0.00 in/hr0.0 mm/hr 0.00 in0.0 mm
09:37 PM 85.8°F29.9°C 48.0°F8.9°C 27% 12.1 mph SW19.5 kmh SW 13.0 mph20.9 kmh -338605.1 mb 0.00 in0.0 mm 0.00 in/hr0.0 mm/hr 0.00 in0.0 mm
09:42 PM 85.6°F29.8°C 47.8°F8.8°C 27% 11.0 mph S17.7 kmh S 6.0 mph9.7 kmh -338605.1 mb 0.00 in0.0 mm 0.00 in/hr0.0 mm/hr 0.00 in0.0 mm
09:47 PM 85.6°F29.8°C 46.8°F8.2°C 26% 8.9 mph SW14.3 kmh SW 6.9 mph11.1 kmh -338605.1 mb 0.00 in0.0 mm 0.00 in/hr0.0 mm/hr 0.00 in0.0 mm
09:52 PM 85.6°F29.8°C 45.9°F7.7°C 25% 8.9 mph SW14.3 kmh SW 8.1 mph13.0 kmh -338605.1 mb 0.00 in0.0 mm 0.00 in/hr0.0 mm/hr 0.00 in0.0 mm
09:57 PM 85.3°F29.6°C 45.5°F7.5°C 25% 8.1 mph SW13.0 kmh SW 4.9 mph7.9 kmh -338605.1 mb 0.00 in0.0 mm 0.00 in/hr0.0 mm/hr 0.00 in0.0 mm
10:02 PM 84.7°F29.3°C 45.0°F7.2°C 25% 6.0 mph SW9.7 kmh SW 12.1 mph19.5 kmh -338605.1 mb 0.00 in0.0 mm 0.00 in/hr0.0 mm/hr 0.00 in0.0 mm
10:07 PM 85.3°F29.6°C 45.5°F7.5°C 25% 8.9 mph S14.3 kmh S 13.0 mph20.9 kmh -338605.1 mb 0.00 in0.0 mm 0.00 in/hr0.0 mm/hr 0.00 in0.0 mm
10:12 PM 86.2°F30.1°C 45.1°F7.3°C 24% 10.1 mph S16.3 kmh S 15.0 mph24.1 kmh -338605.1 mb 0.00 in0.0 mm 0.00 in/hr0.0 mm/hr 0.00 in0.0 mm
10:17 PM 86.2°F30.1°C 45.1°F7.3°C 24% 11.0 mph S17.7 kmh S 12.1 mph19.5 kmh -338605.1 mb 0.00 in0.0 mm 0.00 in/hr0.0 mm/hr 0.00 in0.0 mm
10:22 PM 85.3°F29.6°C 44.4°F6.9°C 24% 13.0 mph S20.9 kmh S 14.1 mph22.7 kmh -338605.1 mb 0.00 in0.0 mm 0.00 in/hr0.0 mm/hr 0.00 in0.0 mm
10:27 PM 84.9°F29.4°C 45.1°F7.3°C 25% 12.1 mph SSW19.5 kmh SSW 8.9 mph14.3 kmh -338605.1 mb 0.00 in0.0 mm 0.00 in/hr0.0 mm/hr 0.00 in0.0 mm
10:32 PM 84.6°F29.2°C 45.0°F7.2°C 25% 11.0 mph S17.7 kmh S 12.1 mph19.5 kmh -338605.1 mb 0.00 in0.0 mm 0.00 in/hr0.0 mm/hr 0.00 in0.0 mm
10:37 PM 84.7°F29.3°C 45.0°F7.2°C 25% 10.1 mph WSW16.3 kmh WSW 13.0 mph20.9 kmh -338605.1 mb 0.00 in0.0 mm 0.00 in/hr0.0 mm/hr 0.00 in0.0 mm
10:42 PM 84.4°F29.1°C 46.8°F8.2°C 27% 8.9 mph SW14.3 kmh SW 4.9 mph7.9 kmh -338605.1 mb 0.00 in0.0 mm 0.00 in/hr0.0 mm/hr 0.00 in0.0 mm
10:47 PM 83.5°F28.6°C 46.0°F7.8°C 27% 8.1 mph SW13.0 kmh SW 4.9 mph7.9 kmh -338605.1 mb 0.00 in0.0 mm 0.00 in/hr0.0 mm/hr 0.00 in0.0 mm
10:52 PM 83.1°F28.4°C 46.6°F8.1°C 28% 8.1 mph SW13.0 kmh SW 12.1 mph19.5 kmh -338605.1 mb 0.00 in0.0 mm 0.00 in/hr0.0 mm/hr 0.00 in0.0 mm
10:57 PM 82.9°F28.3°C 47.5°F8.6°C 29% 8.9 mph SW14.3 kmh SW 12.1 mph19.5 kmh -338605.1 mb 0.00 in0.0 mm 0.00 in/hr0.0 mm/hr 0.00 in0.0 mm
11:02 PM 82.8°F28.2°C 48.2°F9.0°C 30% 11.0 mph SW17.7 kmh SW 17.0 mph27.4 kmh -338605.1 mb 0.00 in0.0 mm 0.00 in/hr0.0 mm/hr 0.00 in0.0 mm
11:07 PM 82.8°F28.2°C 47.3°F8.5°C 29% 13.0 mph SW20.9 kmh SW 13.0 mph20.9 kmh -338605.1 mb 0.00 in0.0 mm 0.00 in/hr0.0 mm/hr 0.00 in0.0 mm
11:12 PM 82.2°F27.9°C 47.7°F8.7°C 30% 13.0 mph SW20.9 kmh SW 12.1 mph19.5 kmh -338605.1 mb 0.00 in0.0 mm 0.00 in/hr0.0 mm/hr 0.00 in0.0 mm
11:17 PM 82.0°F27.8°C 46.6°F8.1°C 29% 13.0 mph SW20.9 kmh SW 17.9 mph28.8 kmh -338605.1 mb 0.00 in0.0 mm 0.00 in/hr0.0 mm/hr 0.00 in0.0 mm
11:22 PM 82.0°F27.8°C 46.6°F8.1°C 29% 13.0 mph SW20.9 kmh SW 12.1 mph19.5 kmh -338605.1 mb 0.00 in0.0 mm 0.00 in/hr0.0 mm/hr 0.00 in0.0 mm
11:27 PM 82.4°F28.0°C 46.0°F7.8°C 28% 12.1 mph SW19.5 kmh SW 12.1 mph19.5 kmh -338605.1 mb 0.00 in0.0 mm 0.00 in/hr0.0 mm/hr 0.00 in0.0 mm
11:32 PM 82.4°F28.0°C 46.0°F7.8°C 28% 12.1 mph SW19.5 kmh SW 13.0 mph20.9 kmh -338605.1 mb 0.00 in0.0 mm 0.00 in/hr0.0 mm/hr 0.00 in0.0 mm
11:37 PM 82.0°F27.8°C 45.7°F7.6°C 28% 13.0 mph SW20.9 kmh SW 14.1 mph22.7 kmh -338605.1 mb 0.00 in0.0 mm 0.00 in/hr0.0 mm/hr 0.00 in0.0 mm
11:42 PM 82.0°F27.8°C 45.7°F7.6°C 28% 13.0 mph SSW20.9 kmh SSW 11.0 mph17.7 kmh -338605.1 mb 0.00 in0.0 mm 0.00 in/hr0.0 mm/hr 0.00 in0.0 mm
11:47 PM 81.9°F27.7°C 45.5°F7.5°C 28% 11.0 mph SSW17.7 kmh SSW 6.9 mph11.1 kmh -338605.1 mb 0.00 in0.0 mm 0.00 in/hr0.0 mm/hr 0.00 in0.0 mm
11:52 PM 81.9°F27.7°C 44.6°F7.0°C 27% 10.1 mph SW16.3 kmh SW 8.9 mph14.3 kmh -338605.1 mb 0.00 in0.0 mm 0.00 in/hr0.0 mm/hr 0.00 in0.0 mm
11:57 PM 82.0°F27.8°C 44.8°F7.1°C 27% 11.0 mph SSW17.7 kmh SSW 8.9 mph14.3 kmh -338605.1 mb 0.00 in0.0 mm 0.00 in/hr0.0 mm/hr 0.00 in0.0 mm